Aérodrome :
LOGIN :

S'inscrire | Disclaimer

   EN    FR    IT 

 










Légende :    VFR   VFR Marginal   IFR   IFR Intensif   IFR Très Intensif
Visi : 
Plafond : 
>= 8 km
>= 3000ft
5 à 8 km
1000 à 3000 ft
1500m à 5 km
500 à 1000 ft
800 à 1500m
200 à 500 ft
< 800m
< 200 ft
Symboles :   Orages  Brouillard  Fortes neiges  Fortes précipitations  Vent > 20 kt
SIGMETs :   Divers  Orages  Givrage  Turbulence  Onde Orograph.  Cendres Volcan.






- Altitude de l'aérodrome : 870 ft
- Code IATA : ETZ


LFJL - Metz Nancy Lorraine

DERNIER METAR :
  • 270900Z AUTO 03012KT 7000 NSC 05/02 Q1037 NOSIG

METARs EXPIRÉS :
  • 270830Z AUTO 04014KT 7000 NSC 04/01 Q1037 NOSIG
  • 270800Z AUTO 04012KT 8000 NSC 02/01 Q1037 TEMPO 4000 BR
  • 270730Z AUTO 04011KT 5000 BR NSC 01/00 Q1037 NOSIG
  • 270700Z AUTO 04008KT 4300 BR NSC M00/M01 Q1037 NOSIG
  • 270630Z AUTO 04010KT 4500 BR NSC M01/M02 Q1036 NOSIG

TAF TAF LFJL
Valide du 27 à 06h jusqu'au 28 à 06h UTC


270500Z 2706/2806 03008KT 7000 NSC
TEMPO 2706/2709 4000 BR
BECMG 2709/2711 CAVOK



MET'MAP, la Météo Aéronautique d'un coup d'oeil ! - Copyright ORBIFLY Décembre 2007 - Disclaimer

ORBIFLY MET'MAP TEAM :

Programmation & Développement : Alexandra Zaïnal
Sur une idée originale de : Baudouin d'Aumeries
Assistance à la programmation : Marc-Olivier Méhu
Soutien technique & logistique : Manuel Goepfert

Contact : metmap@orbifly.com




SOURCES & CREDITS :

   NOAA